Time;durP1;ratioP1;P1;durP2;ratioP2;P2;SDS_P1;SDS_P2;PMS_P1;PMS_P2;Temp;Humidity;BMP_temperature;BMP_pressure;BME280_temperature;BME280_humidity;BME280_pressure;Samples;Min_cycle;Max_cycle;Signal;HPM_P1;HPM_P2
2022/10/03 00:00:00;;;;;;;14.50;2.92;;;10.00;99.90;;;;;;5046155;28;20045;-68
2022/10/03 00:02:48;;;;;;;11.57;2.65;;;9.90;99.90;;;;;;5045842;28;20056;-68
2022/10/03 00:05:41;;;;;;;17.42;2.50;;;9.90;99.90;;;;;;5041561;28;20053;-68
2022/10/03 00:08:13;;;;;;;17.83;2.83;;;9.80;99.90;;;;;;5045887;28;20052;-68
2022/10/03 00:10:48;;;;;;;11.95;2.42;;;9.80;99.90;;;;;;5047265;28;20524;-68
2022/10/03 00:13:38;;;;;;;14.57;2.65;;;9.90;99.90;;;;;;5047560;28;20595;-68
2022/10/03 00:16:23;;;;;;;11.02;2.42;;;9.80;99.90;;;;;;5044906;28;20053;-68
2022/10/03 00:19:26;;;;;;;15.65;2.17;;;9.80;99.90;;;;;;5036097;28;20053;-68
2022/10/03 00:22:19;;;;;;;17.17;3.08;;;9.70;99.90;;;;;;4988933;28;20109;-68
2022/10/03 00:24:51;;;;;;;15.77;2.63;;;9.80;99.90;;;;;;5005629;28;20085;-68
2022/10/03 00:27:47;;;;;;;13.95;2.50;;;9.80;99.90;;;;;;4989330;28;20050;-68
2022/10/03 00:30:19;;;;;;;13.00;2.63;;;9.70;99.90;;;;;;4988856;28;20054;-68
2022/10/03 00:33:31;;;;;;;17.08;2.95;;;9.80;99.90;;;;;;4988606;28;20050;-68
2022/10/03 00:36:26;;;;;;;16.17;2.03;;;9.70;99.90;;;;;;4976292;28;20050;-68
2022/10/03 00:39:06;;;;;;;19.27;2.20;;;9.70;99.90;;;;;;4983306;28;20058;-68
2022/10/03 00:41:46;;;;;;;14.20;3.00;;;9.80;99.90;;;;;;4988963;28;20054;-68
2022/10/03 00:44:36;;;;;;;20.02;2.70;;;9.80;99.90;;;;;;4988744;28;20046;-68
2022/10/03 00:47:05;;;;;;;;;;;9.70;99.90;;;;;;4999374;28;20125;-68
2022/10/03 00:50:04;;;;;;;13.48;2.15;;;9.80;99.90;;;;;;5005081;28;20386;-68
2022/10/03 00:52:50;;;;;;;10.70;1.90;;;9.70;99.90;;;;;;4988549;28;20104;-68
2022/10/03 00:55:46;;;;;;;13.95;2.40;;;9.70;99.90;;;;;;4982372;28;20054;-68
2022/10/03 00:58:47;;;;;;;12.77;2.28;;;9.60;99.90;;;;;;5014033;28;20053;-68
2022/10/03 01:01:33;;;;;;;18.40;2.90;;;9.70;99.90;;;;;;5024856;28;20065;-68
2022/10/03 01:04:06;;;;;;;13.48;1.77;;;9.70;99.90;;;;;;5008165;28;20061;-68
2022/10/03 01:06:47;;;;;;;10.82;2.13;;;9.80;99.90;;;;;;5008243;28;20046;-68
2022/10/03 01:09:42;;;;;;;11.43;2.22;;;9.80;99.90;;;;;;5024423;28;20176;-68
2022/10/03 01:12:28;;;;;;;9.93;2.00;;;9.80;99.90;;;;;;4981259;28;20059;-68
2022/10/03 01:15:09;;;;;;;13.15;1.90;;;9.90;99.90;;;;;;4964958;28;20069;-68
2022/10/03 01:17:53;;;;;;;13.77;2.63;;;9.90;99.90;;;;;;4978017;28;20086;-68
2022/10/03 01:20:19;;;;;;;11.05;2.25;;;9.90;99.90;;;;;;4963472;28;20097;-68
2022/10/03 01:22:50;;;;;;;10.68;2.22;;;10.10;99.90;;;;;;4959996;28;20051;-68
2022/10/03 01:25:16;;;;;;;10.70;2.15;;;10.20;99.90;;;;;;4963585;28;20067;-68
2022/10/03 01:31:04;;;;;;;13.93;2.15;;;10.20;99.90;;;;;;4980491;28;20542;-68
2022/10/03 01:33:40;;;;;;;12.90;2.20;;;10.30;99.90;;;;;;4950583;28;20055;-68
2022/10/03 01:36:31;;;;;;;15.27;2.00;;;10.30;99.90;;;;;;4943932;28;20059;-68
2022/10/03 01:39:04;;;;;;;16.13;3.05;;;10.50;99.90;;;;;;4987805;28;20054;-68
2022/10/03 01:41:48;;;;;;;8.35;1.73;;;10.40;99.90;;;;;;4983902;28;20050;-68
2022/10/03 01:44:52;;;;;;;18.23;2.30;;;10.60;99.90;;;;;;4988013;28;20075;-68
2022/10/03 01:47:50;;;;;;;10.35;1.88;;;10.60;99.90;;;;;;4988666;28;20618;-68
2022/10/03 01:50:56;;;;;;;13.88;2.40;;;10.50;99.90;;;;;;5039118;28;20057;-68
2022/10/03 01:53:32;;;;;;;12.65;2.58;;;10.60;99.90;;;;;;5037772;28;20084;-68
2022/10/03 01:56:16;;;;;;;7.95;2.35;;;10.60;99.90;;;;;;5042029;28;20078;-69
2022/10/03 01:58:47;;;;;;;14.38;2.65;;;10.70;99.90;;;;;;5043932;28;20045;-68
2022/10/03 02:01:43;;;;;;;12.00;2.60;;;10.70;99.90;;;;;;5044140;28;20053;-68
2022/10/03 02:04:33;;;;;;;20.48;3.38;;;10.60;99.90;;;;;;5045055;28;20536;-68
2022/10/03 02:07:06;;;;;;;15.30;1.88;;;10.70;99.90;;;;;;5042836;28;20045;-68
2022/10/03 02:09:47;;;;;;;12.73;2.33;;;10.60;99.90;;;;;;5027095;28;20545;-68
2022/10/03 02:12:29;;;;;;;14.25;1.98;;;10.70;99.90;;;;;;5043558;28;20064;-68
2022/10/03 02:15:00;;;;;;;12.93;2.55;;;10.70;99.90;;;;;;5039298;28;20057;-68
2022/10/03 02:17:46;;;;;;;15.20;3.17;;;10.70;99.90;;;;;;5041382;28;20041;-68
2022/10/03 02:20:18;;;;;;;13.57;2.78;;;10.60;99.90;;;;;;5045052;28;20049;-68
2022/10/03 02:22:49;;;;;;;10.00;2.10;;;10.60;99.90;;;;;;5043037;28;20485;-68
2022/10/03 02:25:26;;;;;;;12.15;2.25;;;10.50;99.90;;;;;;5044991;28;20073;-68
2022/10/03 02:28:10;;;;;;;10.27;2.10;;;10.50;99.90;;;;;;5042728;28;20063;-68
2022/10/03 02:30:50;;;;;;;15.55;2.65;;;10.50;99.90;;;;;;5035977;28;20053;-68
2022/10/03 02:33:27;;;;;;;12.07;2.20;;;10.50;99.90;;;;;;5039790;28;20046;-68
2022/10/03 02:36:12;;;;;;;10.20;1.70;;;10.40;99.90;;;;;;5046384;28;20053;-68
2022/10/03 02:39:02;;;;;;;13.10;2.47;;;10.30;99.90;;;;;;5041408;28;20050;-68
2022/10/03 02:41:31;;;;;;;11.82;2.72;;;10.20;99.90;;;;;;5033971;28;20152;-68
2022/10/03 02:44:33;;;;;;;13.23;2.00;;;10.10;99.90;;;;;;5044045;28;20049;-68
2022/10/03 02:47:08;;;;;;;12.68;2.22;;;10.00;99.90;;;;;;5037104;28;20100;-68
2022/10/03 02:49:55;;;;;;;14.10;1.80;;;9.90;99.90;;;;;;5040663;28;20057;-68
2022/10/03 02:52:49;;;;;;;10.90;1.90;;;9.90;99.90;;;;;;5044158;28;20119;-68
2022/10/03 02:55:36;;;;;;;14.40;1.90;;;9.80;99.90;;;;;;5043945;28;20058;-68
2022/10/03 02:58:04;;;;;;;10.43;2.00;;;9.70;99.90;;;;;;5040275;28;20052;-68
2022/10/03 03:00:47;;;;;;;11.90;2.05;;;9.70;99.90;;;;;;5043751;28;20174;-68
2022/10/03 03:03:44;;;;;;;14.43;2.33;;;9.70;99.90;;;;;;5025172;28;20071;-68
2022/10/03 03:06:29;;;;;;;14.02;2.35;;;9.70;99.90;;;;;;5035985;28;20041;-68
2022/10/03 03:09:01;;;;;;;12.07;2.75;;;9.70;99.90;;;;;;5043008;28;20053;-68
2022/10/03 03:11:40;;;;;;;18.23;2.35;;;9.60;99.90;;;;;;5042656;28;20045;-68
2022/10/03 03:14:34;;;;;;;13.93;2.17;;;9.70;99.90;;;;;;5026355;28;20045;-68
2022/10/03 03:17:05;;;;;;;16.67;2.80;;;9.70;99.90;;;;;;5040050;28;20046;-68
2022/10/03 03:20:03;;;;;;;10.15;2.78;;;9.90;99.90;;;;;;5043557;28;20053;-68
2022/10/03 03:22:34;;;;;;;12.45;2.20;;;9.90;99.90;;;;;;5043353;28;20045;-68
2022/10/03 03:25:27;;;;;;;10.88;3.13;;;10.00;99.90;;;;;;5043225;28;20085;-68
2022/10/03 03:28:23;;;;;;;12.38;2.80;;;9.90;99.90;;;;;;5037614;28;20125;-68
2022/10/03 03:31:07;;;;;;;15.82;2.72;;;10.00;99.90;;;;;;5016978;28;20140;-68
2022/10/03 03:34:01;;;;;;;9.88;1.95;;;10.00;99.90;;;;;;5039187;28;20080;-68
2022/10/03 03:36:40;;;;;;;11.98;2.75;;;10.00;99.90;;;;;;5043074;28;20041;-68
2022/10/03 03:39:30;;;;;;;16.50;3.53;;;10.00;99.90;;;;;;5042560;28;20059;-68
2022/10/03 03:42:21;;;;;;;12.63;2.15;;;10.00;99.90;;;;;;5034622;28;20539;-68
2022/10/03 03:45:12;;;;;;;14.25;2.30;;;10.00;99.90;;;;;;5042657;28;20096;-68
2022/10/03 03:47:48;;;;;;;12.73;2.08;;;10.10;99.90;;;;;;5040612;28;20482;-68
2022/10/03 03:50:38;;;;;;;11.10;2.45;;;10.10;99.90;;;;;;5026274;28;20050;-67
2022/10/03 03:53:25;;;;;;;9.45;2.47;;;10.20;99.90;;;;;;5043319;28;20049;-67
2022/10/03 03:55:52;;;;;;;12.52;1.92;;;10.20;99.90;;;;;;5045907;28;20045;-67
2022/10/03 03:58:32;;;;;;;11.35;2.17;;;10.20;99.90;;;;;;5046413;28;20127;-67
2022/10/03 04:01:07;;;;;;;;;;;10.20;99.90;;;;;;5046670;28;20052;-67
2022/10/03 04:03:48;;;;;;;11.60;2.47;;;10.20;99.90;;;;;;5043778;28;20400;-67
2022/10/03 04:06:35;;;;;;;10.23;2.42;;;10.20;99.90;;;;;;5030157;28;20045;-67
2022/10/03 04:09:16;;;;;;;9.93;2.33;;;10.20;99.90;;;;;;5045791;28;20044;-67
2022/10/03 04:12:07;;;;;;;11.90;2.35;;;10.20;99.90;;;;;;5044648;28;20061;-68
2022/10/03 04:14:42;;;;;;;10.20;2.42;;;10.30;99.90;;;;;;5046360;28;20079;-67
2022/10/03 04:20:18;;;;;;;12.27;1.92;;;10.30;99.90;;;;;;5044722;28;20045;-67
2022/10/03 04:23:28;;;;;;;12.57;2.45;;;10.40;99.90;;;;;;5040383;28;20053;-67
2022/10/03 04:26:06;;;;;;;;;;;10.30;99.90;;;;;;5036199;28;20058;-67
2022/10/03 04:28:45;;;;;;;10.30;2.38;;;10.30;99.90;;;;;;5042132;28;19921;-67
2022/10/03 04:31:48;;;;;;;14.85;2.40;;;10.30;99.90;;;;;;5044315;28;20061;-67
2022/10/03 04:35:14;;;;;;;13.25;2.28;;;10.40;99.90;;;;;;5044238;28;20052;-67
2022/10/03 04:37:58;;;;;;;10.23;2.13;;;10.40;99.90;;;;;;5002459;28;20185;-67
2022/10/03 04:40:58;;;;;;;12.02;1.75;;;10.40;99.90;;;;;;4944783;28;20061;-69
2022/10/03 04:43:42;;;;;;;10.05;2.05;;;10.40;99.90;;;;;;5004124;28;20046;-69
2022/10/03 04:46:34;;;;;;;11.93;2.40;;;10.40;99.90;;;;;;5004989;28;20126;-69
2022/10/03 04:49:37;;;;;;;11.85;2.08;;;10.30;99.90;;;;;;5002432;28;20058;-69
2022/10/03 04:52:25;;;;;;;12.70;1.92;;;10.30;99.90;;;;;;5003232;28;20047;-68
2022/10/03 04:55:05;;;;;;;8.90;1.55;;;10.20;99.90;;;;;;4987584;28;20181;-69
2022/10/03 04:57:57;;;;;;;8.20;1.70;;;10.30;99.90;;;;;;4996665;28;20054;-68
2022/10/03 05:00:28;;;;;;;15.20;2.17;;;10.20;99.90;;;;;;4997646;28;20055;-68
2022/10/03 05:03:14;;;;;;;8.27;1.70;;;10.10;99.90;;;;;;4982183;28;20124;-68
2022/10/03 05:06:06;;;;;;;6.47;1.40;;;10.20;99.90;;;;;;4987712;28;20104;-68
2022/10/03 05:08:44;;;;;;;10.60;1.73;;;10.10;99.90;;;;;;5002649;28;20042;-68
2022/10/03 05:11:14;;;;;;;7.60;1.38;;;9.90;99.90;;;;;;4989091;28;20038;-68
2022/10/03 05:13:43;;;;;;;14.23;1.85;;;10.00;99.90;;;;;;5035212;28;20049;-69
2022/10/03 05:16:45;;;;;;;15.32;2.10;;;10.00;99.90;;;;;;5044204;28;20053;-68
2022/10/03 05:19:40;;;;;;;9.32;1.50;;;10.00;99.90;;;;;;5038157;28;20057;-69
2022/10/03 05:22:44;;;;;;;10.40;1.40;;;9.80;99.90;;;;;;5042985;28;20068;-69
2022/10/03 05:25:33;;;;;;;11.50;2.00;;;9.90;99.90;;;;;;5042316;28;20088;-71
2022/10/03 05:28:18;;;;;;;7.70;1.58;;;9.80;99.90;;;;;;5019066;28;20059;-70
2022/10/03 05:31:11;;;;;;;14.38;2.70;;;9.80;99.90;;;;;;5029168;28;20064;-69
2022/10/03 05:33:53;;;;;;;10.07;2.25;;;9.70;99.90;;;;;;5023667;28;20076;-70
2022/10/03 05:36:28;;;;;;;7.57;1.90;;;9.60;99.90;;;;;;5033000;28;20084;-70
2022/10/03 05:39:19;;;;;;;9.57;1.48;;;9.50;99.90;;;;;;5019278;28;20057;-69
2022/10/03 05:42:04;;;;;;;8.20;1.45;;;9.60;99.90;;;;;;5036339;28;20518;-69
2022/10/03 05:45:08;;;;;;;12.43;1.75;;;9.40;99.90;;;;;;5012176;28;20148;-69
2022/10/03 05:47:54;;;;;;;9.80;1.90;;;9.40;99.90;;;;;;5026206;28;20057;-69
2022/10/03 05:50:19;;;;;;;7.53;1.42;;;9.20;99.90;;;;;;5030164;28;20045;-70
2022/10/03 05:52:57;;;;;;;11.88;2.28;;;9.10;99.90;;;;;;5023166;28;20045;-69
2022/10/03 05:55:34;;;;;;;12.07;3.38;;;9.10;99.90;;;;;;5031283;28;20085;-70
2022/10/03 05:58:41;;;;;;;14.05;2.00;;;9.20;99.90;;;;;;5021628;28;20125;-69
2022/10/03 06:01:45;;;;;;;11.10;1.90;;;9.20;99.90;;;;;;5032501;28;20644;-69
2022/10/03 06:04:19;;;;;;;9.57;1.92;;;9.30;99.90;;;;;;4962457;28;20648;-70
2022/10/03 06:07:03;;;;;;;13.50;2.45;;;9.30;99.90;;;;;;4977715;28;20112;-70
2022/10/03 06:09:38;;;;;;;11.93;2.22;;;9.20;99.90;;;;;;4967509;28;20057;-70
2022/10/03 06:12:18;;;;;;;11.60;2.00;;;9.30;99.90;;;;;;4963910;28;20443;-70
2022/10/03 06:15:06;;;;;;;11.60;2.55;;;9.40;99.90;;;;;;4973204;28;20226;-70
2022/10/03 06:17:57;;;;;;;16.63;2.53;;;9.40;99.90;;;;;;4962382;28;20054;-71
2022/10/03 06:20:42;;;;;;;13.68;2.40;;;9.30;99.90;;;;;;4955075;28;20062;-71
2022/10/03 06:23:36;;;;;;;10.80;2.75;;;9.50;99.90;;;;;;4967979;28;20558;-69
2022/10/03 06:26:11;;;;;;;13.45;2.63;;;9.40;99.90;;;;;;4974836;28;20058;-69
2022/10/03 06:28:55;;;;;;;10.52;2.25;;;9.40;99.90;;;;;;4968603;28;20050;-69
2022/10/03 06:31:38;;;;;;;17.67;3.90;;;9.50;99.90;;;;;;4977424;28;20054;-69
2022/10/03 06:34:16;;;;;;;12.52;2.50;;;9.60;99.90;;;;;;4968314;28;20321;-69
2022/10/03 06:36:50;;;;;;;15.95;2.40;;;9.60;99.90;;;;;;4963419;28;20050;-70
2022/10/03 06:39:34;;;;;;;9.38;2.45;;;9.70;99.90;;;;;;4983233;28;20052;-69
2022/10/03 06:42:34;;;;;;;14.93;2.55;;;9.80;99.90;;;;;;5023028;28;20072;-69
2022/10/03 06:45:38;;;;;;;10.43;2.55;;;9.70;99.90;;;;;;5022086;28;20038;-68
2022/10/03 06:48:21;;;;;;;7.88;2.30;;;9.90;99.90;;;;;;5033860;28;20524;-69
2022/10/03 06:51:19;;;;;;;14.25;2.95;;;9.90;99.90;;;;;;5028391;28;20076;-70
2022/10/03 06:54:01;;;;;;;12.27;2.50;;;10.10;99.90;;;;;;5044225;28;20100;-69
2022/10/03 06:56:47;;;;;;;14.23;2.53;;;10.10;99.90;;;;;;5032897;28;20076;-69
2022/10/03 06:59:44;;;;;;;10.75;2.67;;;10.20;99.90;;;;;;5019320;28;20057;-69
2022/10/03 07:02:24;;;;;;;12.88;2.72;;;10.30;99.90;;;;;;5023889;28;20108;-71
2022/10/03 07:05:19;;;;;;;10.57;2.47;;;10.40;99.90;;;;;;5037726;28;20076;-70
2022/10/03 07:07:48;;;;;;;15.10;2.78;;;10.30;99.90;;;;;;5026211;28;20120;-70
2022/10/03 07:10:30;;;;;;;11.75;2.95;;;10.50;99.90;;;;;;5016158;28;20048;-69
2022/10/03 07:13:27;;;;;;;9.50;2.35;;;10.60;99.90;;;;;;5011987;28;20130;-70
2022/10/03 07:16:11;;;;;;;8.57;2.42;;;10.50;99.90;;;;;;5028736;28;20057;-74
2022/10/03 07:18:55;;;;;;;8.90;2.42;;;10.70;99.90;;;;;;5027780;28;20053;-74
2022/10/03 07:21:46;;;;;;;8.90;2.25;;;10.60;99.90;;;;;;5032121;28;20045;-73
2022/10/03 07:24:39;;;;;;;12.63;1.95;;;10.70;99.90;;;;;;5026236;28;20053;-74
2022/10/03 07:27:09;;;;;;;11.40;2.15;;;10.90;99.90;;;;;;5041898;28;20045;-73
2022/10/03 07:29:53;;;;;;;13.75;2.72;;;10.90;99.90;;;;;;5024138;28;20046;-74
2022/10/03 07:32:51;;;;;;;11.45;2.20;;;11.00;99.90;;;;;;5029296;28;20681;-74
2022/10/03 07:38:57;;;;;;;9.95;2.22;;;11.20;99.90;;;;;;5031576;28;20059;-73
2022/10/03 07:42:00;;;;;;;14.68;2.00;;;11.20;99.90;;;;;;5015637;28;20049;-73
2022/10/03 07:44:44;;;;;;;10.05;2.35;;;11.30;99.90;;;;;;5029737;28;20121;-73
2022/10/03 07:48:00;;;;;;;12.20;2.65;;;11.40;99.90;;;;;;5036325;28;20049;-73
2022/10/03 07:50:39;;;;;;;9.32;2.10;;;11.50;99.90;;;;;;4990903;28;20267;-73
2022/10/03 07:53:27;;;;;;;8.30;2.00;;;11.60;99.90;;;;;;5007283;28;20597;-73
2022/10/03 07:56:26;;;;;;;13.38;2.35;;;11.70;99.90;;;;;;4986737;28;20477;-74
2022/10/03 07:59:19;;;;;;;9.18;2.10;;;11.70;99.90;;;;;;4970059;28;20046;-73
2022/10/03 08:01:53;;;;;;;9.55;2.25;;;11.80;99.90;;;;;;4996471;28;20046;-73
2022/10/03 08:04:47;;;;;;;9.65;1.80;;;12.10;99.90;;;;;;4972930;28;20267;-73
2022/10/03 08:08:10;;;;;;;10.82;2.00;;;12.00;99.90;;;;;;5000391;28;20053;-74
2022/10/03 08:10:55;;;;;;;8.60;2.00;;;12.10;99.90;;;;;;4914249;29;20055;-74
2022/10/03 08:13:38;;;;;;;15.50;1.67;;;12.30;99.90;;;;;;4927598;28;20422;-74
2022/10/03 08:16:13;;;;;;;11.40;2.25;;;12.30;99.90;;;;;;4925065;29;20063;-75
2022/10/03 08:19:06;;;;;;;12.40;2.17;;;12.40;99.90;;;;;;4931190;29;20385;-75
2022/10/03 08:21:57;;;;;;;9.93;1.63;;;12.50;99.90;;;;;;4937111;29;20051;-75
2022/10/03 08:25:06;;;;;;;8.90;1.60;;;12.60;99.90;;;;;;4931346;29;20079;-74
2022/10/03 08:27:50;;;;;;;11.40;1.42;;;12.70;99.90;;;;;;4927414;29;20136;-74
2022/10/03 08:30:51;;;;;;;13.05;1.40;;;12.80;99.90;;;;;;4923198;29;20138;-74
2022/10/03 08:33:41;;;;;;;14.80;2.80;;;12.90;99.90;;;;;;4911667;29;20114;-74
2022/10/03 08:36:09;;;;;;;9.85;1.90;;;13.00;99.90;;;;;;4922453;29;20032;-75
2022/10/03 08:39:17;;;;;;;11.00;1.92;;;13.00;99.90;;;;;;4909780;29;20509;-74
2022/10/03 08:42:24;;;;;;;10.65;2.13;;;13.30;99.90;;;;;;4895935;29;20062;-74
2022/10/03 08:45:06;;;;;;;10.90;1.38;;;13.40;99.90;;;;;;4985227;28;20051;-74
2022/10/03 08:47:50;;;;;;;5.10;1.70;;;13.60;99.90;;;;;;5031306;28;20064;-75
2022/10/03 08:50:35;;;;;;;9.45;1.55;;;13.70;99.90;;;;;;5034039;28;20068;-74
2022/10/03 08:53:37;;;;;;;9.27;1.70;;;13.90;99.90;;;;;;5026340;28;20064;-74
2022/10/03 08:56:40;;;;;;;9.60;1.70;;;14.10;99.90;;;;;;5042827;28;20041;-75
2022/10/03 08:59:27;;;;;;;9.07;1.83;;;14.20;99.90;;;;;;5016498;28;20056;-74
2022/10/03 09:02:19;;;;;;;8.55;1.10;;;14.20;99.90;;;;;;5034971;28;20051;-75
2022/10/03 09:05:08;;;;;;;8.98;1.50;;;14.40;99.90;;;;;;4995392;28;20045;-75
2022/10/03 09:07:58;;;;;;;8.27;1.45;;;14.40;99.90;;;;;;5035544;28;20285;-75
2022/10/03 09:10:52;;;;;;;13.68;1.70;;;14.50;99.90;;;;;;5006727;28;20041;-74
2022/10/03 09:13:42;;;;;;;7.75;1.60;;;14.60;99.90;;;;;;5028347;28;20079;-73
2022/10/03 09:16:19;;;;;;;8.40;1.85;;;14.70;99.90;;;;;;5031853;28;20156;-75
2022/10/03 09:18:56;;;;;;;6.78;1.42;;;14.80;99.90;;;;;;5032225;28;20040;-74
2022/10/03 09:21:41;;;;;;;7.70;1.70;;;14.80;99.90;;;;;;5037443;28;20048;-74
2022/10/03 09:24:14;;;;;;;7.55;1.30;;;14.90;99.90;;;;;;5030019;28;20064;-75
2022/10/03 09:27:08;;;;;;;6.15;1.80;;;15.00;99.90;;;;;;5040119;28;20076;-73
2022/10/03 09:29:57;;;;;;;8.90;2.17;;;15.00;99.90;;;;;;5030726;28;20165;-74
2022/10/03 09:32:55;;;;;;;8.18;1.55;;;15.10;99.90;;;;;;5035367;28;20049;-75
2022/10/03 09:35:49;;;;;;;5.45;1.65;;;15.10;99.90;;;;;;5010316;28;20336;-75
2022/10/03 09:38:42;;;;;;;8.10;1.90;;;15.20;99.90;;;;;;5030315;28;20067;-75
2022/10/03 09:41:38;;;;;;;13.05;1.95;;;15.20;99.90;;;;;;5006112;28;20049;-74
2022/10/03 09:44:22;;;;;;;5.47;1.70;;;15.30;99.90;;;;;;5013326;28;20497;-74
2022/10/03 09:47:22;;;;;;;8.13;2.08;;;15.30;99.90;;;;;;5032262;28;20349;-74
2022/10/03 09:50:10;;;;;;;8.93;1.42;;;15.40;99.90;;;;;;5022198;28;20048;-75
2022/10/03 09:52:51;;;;;;;7.05;1.13;;;15.50;99.90;;;;;;5032812;28;20052;-75
2022/10/03 09:55:22;;;;;;;8.50;1.40;;;15.60;99.90;;;;;;5013320;28;20053;-75
2022/10/03 09:58:09;;;;;;;8.55;1.48;;;15.60;99.90;;;;;;5015725;28;20056;-74
2022/10/03 10:01:01;;;;;;;8.18;1.42;;;15.70;99.90;;;;;;4999935;28;20106;-74
2022/10/03 10:03:49;;;;;;;9.90;1.50;;;15.70;99.90;;;;;;5037015;28;20658;-74
2022/10/03 10:06:27;;;;;;;4.75;1.20;;;15.80;99.90;;;;;;5051727;28;20041;-74
2022/10/03 10:09:39;;;;;;;6.28;1.23;;;15.80;99.90;;;;;;5035699;28;20091;-74
2022/10/03 10:12:29;;;;;;;7.47;1.38;;;15.80;99.90;;;;;;5027161;28;20360;-75
2022/10/03 10:15:33;;;;;;;6.95;1.27;;;15.90;99.90;;;;;;5031133;28;20063;-74
2022/10/03 10:18:22;;;;;;;5.15;1.63;;;16.00;99.90;;;;;;5007430;28;20061;-73
2022/10/03 10:21:03;;;;;;;4.28;1.20;;;16.10;99.90;;;;;;5038794;28;20061;-75
2022/10/03 10:23:39;;;;;;;7.15;1.17;;;16.10;99.90;;;;;;5023480;28;20474;-74
2022/10/03 10:26:04;;;;;;;8.35;1.55;;;16.10;99.90;;;;;;5030945;28;20053;-73
2022/10/03 10:29:10;;;;;;;6.20;1.10;;;16.20;99.90;;;;;;5006922;28;20053;-73
2022/10/03 10:32:25;;;;;;;6.43;1.42;;;16.20;99.90;;;;;;5033353;28;20049;-73
2022/10/03 10:35:14;;;;;;;8.05;1.63;;;16.20;99.90;;;;;;5018480;28;20058;-73
2022/10/03 10:38:08;;;;;;;6.07;1.10;;;16.30;99.90;;;;;;5007080;28;20048;-72
2022/10/03 10:40:55;;;;;;;7.18;2.10;;;16.50;99.90;;;;;;5031166;28;20091;-72
2022/10/03 10:44:02;;;;;;;5.93;1.60;;;16.50;99.90;;;;;;5028277;28;20560;-72
2022/10/03 10:47:16;;;;;;;4.03;1.23;;;16.60;99.90;;;;;;5022354;28;20056;-71
2022/10/03 10:50:23;;;;;;;7.00;1.55;;;16.70;99.90;;;;;;4994270;28;20553;-71
2022/10/03 10:53:26;;;;;;;5.53;1.20;;;16.70;99.90;;;;;;4990478;28;20049;-72
2022/10/03 10:56:13;;;;;;;6.43;1.52;;;16.50;99.90;;;;;;4980486;28;20489;-73
2022/10/03 10:59:11;;;;;;;8.27;1.40;;;16.60;99.90;;;;;;4991919;28;20046;-72
2022/10/03 11:02:04;;;;;;;6.03;1.35;;;16.70;99.90;;;;;;4962272;28;20070;-72
2022/10/03 11:04:48;;;;;;;5.57;1.10;;;16.80;99.90;;;;;;4988702;28;20083;-72
2022/10/03 11:08:12;;;;;;;5.38;1.13;;;16.90;99.90;;;;;;4988319;28;20640;-73
2022/10/03 11:11:12;;;;;;;6.32;1.20;;;16.90;99.90;;;;;;4940402;29;20058;-71
2022/10/03 11:14:20;;;;;;;6.88;1.20;;;16.90;99.90;;;;;;4930572;29;20051;-72
2022/10/03 11:17:11;;;;;;;6.45;1.40;;;16.90;99.90;;;;;;4941822;29;20047;-72
2022/10/03 11:20:06;;;;;;;4.82;1.20;;;16.90;99.90;;;;;;4930811;29;20054;-72
2022/10/03 11:22:40;;;;;;;5.00;1.20;;;16.90;99.90;;;;;;4946693;28;20087;-72
2022/10/03 11:25:46;;;;;;;7.18;1.40;;;17.00;99.90;;;;;;4956213;28;20112;-72
2022/10/03 11:28:42;;;;;;;5.05;1.15;;;17.00;99.90;;;;;;4952756;28;20078;-72
2022/10/03 11:31:38;;;;;;;6.68;1.00;;;17.10;99.90;;;;;;4973262;28;20095;-73
2022/10/03 11:34:18;;;;;;;6.00;1.08;;;16.80;99.90;;;;;;4985280;28;20113;-73
2022/10/03 11:37:01;;;;;;;10.20;2.30;;;16.70;99.90;;;;;;4980905;28;20126;-73
2022/10/03 11:39:50;;;;;;;4.78;1.25;;;16.70;99.90;;;;;;4979686;28;20148;-74
2022/10/03 11:42:26;;;;;;;6.72;1.60;;;16.80;99.90;;;;;;5030954;28;20332;-74
2022/10/03 11:44:55;;;;;;;3.72;1.17;;;16.90;99.90;;;;;;5025978;28;20064;-72
2022/10/03 11:47:32;;;;;;;7.60;1.20;;;16.90;99.90;;;;;;5023981;28;20088;-74
2022/10/03 11:50:29;;;;;;;5.53;1.20;;;16.90;99.90;;;;;;5035093;28;20073;-73
2022/10/03 11:53:17;;;;;;;10.40;1.75;;;17.00;99.90;;;;;;5027253;28;20164;-72
2022/10/03 11:56:18;;;;;;;6.30;1.30;;;17.00;99.90;;;;;;5030058;28;20049;-73
2022/10/03 11:59:05;;;;;;;4.00;0.90;;;17.00;99.90;;;;;;5022181;28;20343;-72
2022/10/03 12:01:31;;;;;;;7.40;1.42;;;17.00;99.90;;;;;;5036736;28;20041;-73
2022/10/03 12:04:35;;;;;;;4.07;1.42;;;17.10;99.90;;;;;;5030238;28;20521;-72
2022/10/03 12:10:41;;;;;;;5.40;1.00;;;17.10;99.90;;;;;;5009364;28;20061;-73
2022/10/03 12:13:13;;;;;;;4.38;1.00;;;17.20;99.90;;;;;;5029994;28;20045;-73
2022/10/03 12:15:47;;;;;;;4.82;1.10;;;17.30;99.90;;;;;;5040657;28;20053;-73
2022/10/03 12:18:33;;;;;;;5.35;1.30;;;17.40;99.90;;;;;;5031934;28;20095;-73
2022/10/03 12:21:08;;;;;;;3.97;1.00;;;17.70;99.90;;;;;;5038295;28;20045;-73
2022/10/03 12:23:55;;;;;;;7.25;1.45;;;17.90;99.90;;;;;;5019772;28;20058;-73
2022/10/03 12:26:56;;;;;;;7.80;1.27;;;18.20;99.90;;;;;;5032893;28;20469;-73
2022/10/03 12:29:25;;;;;;;3.05;1.10;;;18.20;99.90;;;;;;5030844;28;20067;-73
2022/10/03 12:32:15;;;;;;;9.82;1.77;;;18.10;99.90;;;;;;5004338;28;20125;-73
2022/10/03 12:35:03;;;;;;;5.18;1.38;;;18.10;99.90;;;;;;5028296;28;20380;-73
2022/10/03 12:37:49;;;;;;;7.55;1.27;;;17.90;99.90;;;;;;5033781;28;20060;-73
2022/10/03 12:40:33;;;;;;;5.45;1.30;;;17.80;99.90;;;;;;5038113;28;20117;-73
2022/10/03 12:43:14;;;;;;;6.93;1.20;;;17.70;99.90;;;;;;5030901;28;20049;-72
2022/10/03 12:45:50;;;;;;;5.28;1.40;;;17.70;99.90;;;;;;5036168;28;20057;-73
2022/10/03 12:48:41;;;;;;;6.35;1.25;;;17.80;99.90;;;;;;5034263;28;20055;-73
2022/10/03 12:51:15;;;;;;;7.25;1.30;;;18.10;99.90;;;;;;5040484;28;20050;-73
2022/10/03 12:54:22;;;;;;;6.53;1.17;;;18.40;99.90;;;;;;5031032;28;20145;-73
2022/10/03 12:56:52;;;;;;;4.68;1.13;;;18.90;99.90;;;;;;4950782;28;20085;-74
2022/10/03 12:59:41;;;;;;;6.63;1.00;;;19.10;99.90;;;;;;4971463;28;20547;-74
2022/10/03 13:02:37;;;;;;;5.32;1.17;;;19.10;99.90;;;;;;4993193;28;20093;-74
2022/10/03 13:05:54;;;;;;;6.03;1.52;;;18.90;99.90;;;;;;4925948;28;20706;-74
2022/10/03 13:09:02;;;;;;;7.50;1.58;;;18.50;99.90;;;;;;4969561;28;20062;-75
2022/10/03 13:11:49;;;;;;;6.10;1.02;;;19.10;99.90;;;;;;4925249;29;20501;-74
2022/10/03 13:14:26;;;;;;;5.03;1.38;;;20.00;99.90;;;;;;4916535;29;20051;-74
2022/10/03 13:17:28;;;;;;;3.20;0.90;;;20.30;99.90;;;;;;4918842;29;20052;-73
2022/10/03 13:20:08;;;;;;;4.72;1.05;;;20.30;99.90;;;;;;4899721;29;20598;-74
2022/10/03 13:22:40;;;;;;;3.85;1.58;;;20.00;99.90;;;;;;4941220;29;20059;-74
2022/10/03 13:25:24;;;;;;;4.57;1.33;;;20.00;99.90;;;;;;4930806;29;20055;-74
2022/10/03 13:28:06;;;;;;;6.20;1.30;;;19.90;99.90;;;;;;4913978;29;20047;-74
2022/10/03 13:30:52;;;;;;;6.22;1.45;;;19.90;99.90;;;;;;4949485;28;20060;-73
2022/10/03 13:33:22;;;;;;;5.10;1.08;;;19.70;99.90;;;;;;4947246;28;20562;-72
2022/10/03 13:36:04;;;;;;;5.28;1.00;;;20.00;99.90;;;;;;4957656;28;20137;-75
2022/10/03 13:38:57;;;;;;;2.92;0.82;;;20.10;99.90;;;;;;4948326;28;20062;-73
2022/10/03 13:41:28;;;;;;;4.70;1.35;;;20.20;99.90;;;;;;4974502;28;20065;-74
2022/10/03 13:44:14;;;;;;;4.63;1.25;;;20.00;99.90;;;;;;5030165;28;20056;-74
2022/10/03 13:46:52;;;;;;;4.05;1.33;;;19.90;99.90;;;;;;5038183;28;20053;-74
2022/10/03 13:49:33;;;;;;;5.75;1.50;;;19.50;99.90;;;;;;5033200;28;20049;-73
2022/10/03 13:52:17;;;;;;;6.75;1.10;;;19.30;99.90;;;;;;5034197;28;20056;-71
2022/10/03 13:55:01;;;;;;;5.47;1.13;;;19.10;99.90;;;;;;5029531;28;20060;-72
2022/10/03 13:57:51;;;;;;;6.28;1.30;;;18.80;99.90;;;;;;5026984;28;20087;-73
2022/10/03 14:00:23;;;;;;;6.65;1.42;;;18.80;99.90;;;;;;5029205;28;20065;-73
2022/10/03 14:03:00;;;;;;;3.85;1.13;;;18.80;99.90;;;;;;5030292;28;20052;-73
2022/10/03 14:06:11;;;;;;;4.75;1.33;;;18.80;99.90;;;;;;5034795;28;20069;-73
2022/10/03 14:08:55;;;;;;;5.05;1.20;;;18.80;99.90;;;;;;5030493;28;20053;-74
2022/10/03 14:11:23;;;;;;;6.70;1.10;;;18.70;99.90;;;;;;5036706;28;20327;-74
2022/10/03 14:14:20;;;;;;;7.82;1.48;;;18.70;99.90;;;;;;5013642;28;20143;-74
2022/10/03 14:17:10;;;;;;;5.85;0.95;;;18.50;99.90;;;;;;5035472;28;20084;-74
2022/10/03 14:19:45;;;;;;;;;;;18.40;99.90;;;;;;5027729;28;20117;-74
2022/10/03 14:22:17;;;;;;;7.28;1.45;;;18.30;99.90;;;;;;5037618;28;19933;-74
2022/10/03 14:24:45;;;;;;;4.63;1.40;;;18.20;99.90;;;;;;5026272;28;20049;-74
2022/10/03 14:27:39;;;;;;;4.53;1.10;;;18.20;99.90;;;;;;5036542;28;20053;-74
2022/10/03 14:30:08;;;;;;;7.03;1.38;;;18.20;99.90;;;;;;5026549;28;20072;-74
2022/10/03 14:32:58;;;;;;;7.63;1.55;;;18.20;99.90;;;;;;5036937;28;20075;-74
2022/10/03 14:35:38;;;;;;;3.97;1.23;;;18.20;99.90;;;;;;5021857;28;20112;-73
2022/10/03 14:38:56;;;;;;;;;;;18.50;99.90;;;;;;5028522;28;20049;-75